ADDS TAF Board (Experimental) INFO

IDs: Format: Expanded Condensed

Updated at: 0604 UTC 01 Nov 2014

KEWR - Newark Intl, NJ, US

Issued at 0536 UTC 01 Nov 2014
Time0551Z01/07Z01/08Z01/09Z01/10Z01/11Z01/12Z01/13Z01/14Z01/15Z01/16Z01/17Z01/18Z01/19Z
TypeOBSPRVLPRVLPRVLPRVLPRVLPRVLPRVLPRVLPRVLPRVLPRVLPRVLPRVL
VIS105555553333555
CIG1610101010101010101010151515
CoverOVCOVCOVCOVCOVCOVCOVCOVCOVCOVCOVCOVCOVCOVC
FltCatMVFRMVFRMVFRMVFRMVFRMVFRMVFRMVFRMVFRMVFRMVFRMVFRMVFRMVFR
WX---RA BR-RA BR-RA BR-RA BR-RA BR-RA BRRA BRRA BRRA BRRA BR-RA BR-RA BR-RA BR
WDir2030303030303020202020360360360
WSpd1315151515151518181818191919
WGst--21212121212128282828303030
R04/22
XWnd1-1-1-1-1-1-12222888
XGst---1-1-1-1-1-13333131313
HWnd1315151515151518181818171717
HGst--21212121212128282828272727
R11/29
XWnd1314141414141417171717191919
XGst--19191919191927272727303030
HWnd36666665555-2-2-2
HGst--9999997777-3-3-3
Raw TAF
KEWR 010536Z 0106/0212 03015G21KT 5SM -RA BR OVC010
  FM011300 02018G28KT 3SM RA BR OVC010
  FM011700 36019G30KT 5SM -RA BR OVC015
  FM012100 35019G29KT P6SM SCT015 BKN025 OVC035
  FM020100 34018G28KT P6SM SCT025 OVC040


Raw METAR
KEWR 010551Z 02013KT 10SM FEW012 BKN016 OVC025 08/07 A2985 RMK AO2 RAE31 SLP108 P0000 60001 T00830067 10122 20083 56008
KEWR 010539Z 02012KT 10SM BKN015 OVC025 08/07 A2985 RMK AO2 RAE31 P0000

TAF Board Legend

Hazard VFR MVFR IFR LIFR
Visibility (sm) >5 3≤X≤5 1≤X<3 <1
Ceiling (100 ft) >30 10≤X≤30 5≤X<10 <5
Wind Speed (kt) <10 10≤X<20 20≤X<30 ≥30
Wind Gust (kt) <15 15≤X<25 25≤X<35 ≥35
Weather No Wx Reported VCTS,-TS,-FZRA TS,FZRA +TS,+FZRA


Page loaded:  06:04 UTC  |   11:04 PM Pacific  |   12:04 AM Mountain  |   01:04 AM Central  |   02:04 AM Eastern

 

ADVISORIES

FORECASTS

FORECASTS

OBSERVATIONS

USER TOOLS

ABOUT US